createdAt,value
2023-02-14T00:14:20.052Z,8.63
2023-02-14T00:29:22.278Z,9.48
2023-02-14T00:44:24.721Z,8.84
2023-02-14T00:59:26.962Z,8.89
2023-02-14T01:14:29.360Z,8.92
2023-02-14T01:29:31.643Z,8.96
2023-02-14T01:44:33.903Z,8.72
2023-02-14T01:59:36.120Z,8.29
2023-02-14T02:14:38.384Z,7.89
2023-02-14T02:29:40.611Z,6.85
2023-02-14T02:44:42.830Z,7.16
2023-02-14T03:14:51.231Z,5.92
2023-02-14T03:29:53.475Z,6.28
2023-02-14T03:44:55.817Z,6.08
2023-02-14T03:59:58.250Z,6.41
2023-02-14T04:15:00.508Z,6.17
2023-02-14T04:30:02.878Z,6.55
2023-02-14T04:45:05.157Z,6.18
2023-02-14T05:00:07.519Z,6
2023-02-14T05:15:09.792Z,6
2023-02-14T05:30:12.581Z,4.97
2023-02-14T05:45:15.036Z,5.3
2023-02-14T06:00:17.295Z,4.87
2023-02-14T06:15:19.537Z,4.43
2023-02-14T06:30:21.892Z,4.3
2023-02-14T06:45:24.234Z,4.28
2023-02-14T07:00:26.627Z,4.18
2023-02-14T07:15:29.346Z,3.98
2023-02-14T07:30:31.686Z,4.2
2023-02-14T07:45:33.987Z,4.34
2023-02-14T08:00:36.282Z,3.37
2023-02-14T08:15:38.479Z,3.3
2023-02-14T08:30:40.799Z,3.33
2023-02-14T08:45:43.303Z,3.4
2023-02-14T09:00:45.628Z,3.27
2023-02-14T09:15:48.139Z,2.92
2023-02-14T09:30:52.233Z,2.88
2023-02-14T09:45:55.926Z,2.78
2023-02-14T10:00:58.733Z,3.04
2023-02-14T10:16:01.443Z,2.95
2023-02-14T10:31:04.024Z,2.89
2023-02-14T10:46:06.442Z,2.51
2023-02-14T11:01:08.821Z,2.31
2023-02-14T11:16:11.136Z,2.46
2023-02-14T11:31:13.511Z,1.9
2023-02-14T11:46:15.866Z,1.88
2023-02-14T12:01:18.193Z,1.95
2023-02-14T12:16:20.416Z,1.87
2023-02-14T12:31:22.713Z,1.92
2023-02-14T12:46:25.030Z,1.75
2023-02-14T13:01:28.797Z,1.67
2023-02-14T13:16:35.335Z,1.57
2023-02-14T13:31:37.783Z,1.49
2023-02-14T13:46:40.237Z,1.17
2023-02-14T14:01:42.574Z,1.14
2023-02-14T14:16:44.884Z,0.97
2023-02-14T14:31:47.300Z,0.96
2023-02-14T14:46:49.611Z,0.87
2023-02-14T15:01:51.868Z,0.87
2023-02-14T15:16:54.162Z,0.88
2023-02-14T15:31:56.863Z,0.79
2023-02-14T15:46:59.148Z,1.06
2023-02-14T16:02:01.700Z,1.04
2023-02-14T16:17:03.971Z,1.24
2023-02-14T16:32:15.615Z,1.42
2023-02-14T16:47:18.860Z,2.88
2023-02-14T17:02:21.305Z,2.29
2023-02-14T17:17:23.543Z,2.48
2023-02-14T17:32:25.903Z,5.14
2023-02-14T17:47:28.153Z,5.95
2023-02-14T18:02:30.382Z,6.86
2023-02-14T18:17:32.828Z,6.46
2023-02-14T18:32:35.066Z,6.61
2023-02-14T18:47:37.317Z,6.71
2023-02-14T19:02:39.563Z,6.74
2023-02-14T19:17:41.844Z,7.05
2023-02-14T19:32:44.088Z,7.64
2023-02-14T19:47:47.512Z,8.23
2023-02-14T20:02:49.890Z,9.08
2023-02-14T20:17:52.157Z,9.38
2023-02-14T20:32:54.465Z,10.28
2023-02-14T20:47:56.877Z,10.78
2023-02-14T21:02:59.483Z,10.55
2023-02-14T21:18:01.710Z,9.35
2023-02-14T21:33:04.002Z,10.18
2023-02-14T21:48:06.466Z,10.25
2023-02-14T22:03:08.706Z,10.64
2023-02-14T22:18:10.961Z,10.24
2023-02-14T22:33:13.195Z,9.95
2023-02-14T22:48:15.432Z,10.09
2023-02-14T23:03:17.644Z,10.49
2023-02-14T23:18:19.965Z,10.22
2023-02-14T23:33:22.238Z,10.13
2023-02-14T23:48:24.467Z,9.33
